createdAt,value
2022-08-31T00:02:39.443Z,81.93
2022-08-31T00:05:11.364Z,82.61
2022-08-31T00:07:42.107Z,83.16
2022-08-31T00:10:32.486Z,84.02
2022-08-31T00:13:07.852Z,83.87
2022-08-31T00:15:39.369Z,82.66
2022-08-31T00:18:10.032Z,81.56
2022-08-31T00:20:41.390Z,81.33
2022-08-31T00:23:14.599Z,81.63
2022-08-31T00:25:48.588Z,82.88
2022-08-31T00:28:20.572Z,83.41
2022-08-31T00:30:52.263Z,81.38
2022-08-31T00:33:23.076Z,81.34
2022-08-31T00:35:53.766Z,80.96
2022-08-31T00:38:25.573Z,80.88
2022-08-31T00:40:55.756Z,81.07
2022-08-31T00:43:37.030Z,81.32
2022-08-31T00:46:08.411Z,81.44
2022-08-31T00:48:47.900Z,81.63
2022-08-31T00:51:18.836Z,81.82
2022-08-31T00:53:51.092Z,82.09
2022-08-31T00:56:21.932Z,82.55
2022-08-31T00:58:54.766Z,82.15
2022-08-31T01:01:25.664Z,83.20
2022-08-31T01:03:56.986Z,82.05
2022-08-31T01:06:28.683Z,83.00
2022-08-31T01:09:01.197Z,82.98
2022-08-31T01:11:34.813Z,83.17
2022-08-31T01:14:05.838Z,84.22
2022-08-31T01:16:56.102Z,84.65
2022-08-31T01:19:38.328Z,86.74
2022-08-31T01:22:31.656Z,87.11
2022-08-31T01:25:03.439Z,87.27
2022-08-31T01:27:38.080Z,88.46
2022-08-31T01:30:12.565Z,86.83
2022-08-31T01:32:43.728Z,87.09
2022-08-31T01:35:14.965Z,88.12
2022-08-31T01:37:45.610Z,89.55
2022-08-31T01:40:19.526Z,90.63
2022-08-31T01:42:50.242Z,91.15
2022-08-31T01:45:21.593Z,91.71
2022-08-31T01:47:52.006Z,90.62
2022-08-31T01:50:23.255Z,92.53
2022-08-31T01:52:53.700Z,92.57
2022-08-31T01:55:25.190Z,92.88
2022-08-31T01:57:55.960Z,93.40
2022-08-31T02:00:45.448Z,94.09
2022-08-31T02:03:17.036Z,94.14
2022-08-31T02:05:48.054Z,94.52
2022-08-31T02:08:18.545Z,95.06
2022-08-31T02:10:49.081Z,95.32
2022-08-31T02:13:20.925Z,95.81
2022-08-31T02:15:53.784Z,95.70
2022-08-31T02:18:23.953Z,95.80
2022-08-31T02:20:55.506Z,96.03
2022-08-31T02:23:26.167Z,94.11
2022-08-31T02:25:57.146Z,94.50
2022-08-31T02:28:27.401Z,95.34
2022-08-31T02:30:58.573Z,95.65
2022-08-31T02:33:29.686Z,95.12
2022-08-31T02:36:02.757Z,94.87
2022-08-31T02:38:34.724Z,94.73
2022-08-31T02:41:06.348Z,90.41
2022-08-31T02:43:39.330Z,89.38
2022-08-31T02:46:09.936Z,87.76
2022-08-31T02:48:46.365Z,87.25
2022-08-31T02:51:20.276Z,87.34
2022-08-31T02:53:52.079Z,86.58
2022-08-31T02:56:22.722Z,86.55
2022-08-31T02:58:55.785Z,86.69
2022-08-31T03:01:27.939Z,86.13
2022-08-31T03:03:59.671Z,87.07
2022-08-31T03:06:32.955Z,87.10
2022-08-31T03:09:04.105Z,86.49
2022-08-31T03:11:34.464Z,87.14
2022-08-31T03:14:04.783Z,87.55
2022-08-31T03:16:35.419Z,89.38
2022-08-31T03:19:06.002Z,90.12
2022-08-31T03:21:36.433Z,89.07
2022-08-31T03:24:08.249Z,89.25
2022-08-31T03:26:39.949Z,89.81
2022-08-31T03:29:10.191Z,90.23
2022-08-31T03:32:05.658Z,90.58
2022-08-31T03:34:38.151Z,90.64
2022-08-31T03:37:08.984Z,90.76
2022-08-31T03:39:40.181Z,91.27
2022-08-31T03:42:10.647Z,91.73
2022-08-31T03:44:41.214Z,92.17
2022-08-31T03:47:20.615Z,92.14
2022-08-31T03:49:51.868Z,91.88
2022-08-31T03:52:26.325Z,91.87
2022-08-31T03:55:14.129Z,92.04
2022-08-31T03:57:45.046Z,92.33
2022-08-31T04:00:16.335Z,92.43
2022-08-31T04:02:51.758Z,91.58
2022-08-31T04:05:38.490Z,92.21
2022-08-31T04:08:15.599Z,91.79
2022-08-31T04:10:52.228Z,91.50
2022-08-31T04:13:41.424Z,90.00
2022-08-31T04:16:23.411Z,90.60
2022-08-31T04:19:12.668Z,91.35
2022-08-31T04:21:51.335Z,92.24
2022-08-31T04:24:21.995Z,93.11
2022-08-31T04:26:54.848Z,93.62
2022-08-31T04:29:26.271Z,94.05
2022-08-31T04:31:56.369Z,94.65
2022-08-31T04:34:27.139Z,95.21
2022-08-31T04:36:57.896Z,95.75
2022-08-31T04:39:28.485Z,95.66
2022-08-31T04:42:02.927Z,95.76
2022-08-31T04:44:35.536Z,95.89
2022-08-31T04:47:06.681Z,96.36
2022-08-31T04:49:37.383Z,97.07
2022-08-31T04:52:07.975Z,97.15
2022-08-31T04:54:38.919Z,97.22
2022-08-31T04:57:09.703Z,97.46
2022-08-31T04:59:40.160Z,98.04
2022-08-31T05:02:30.213Z,97.61
2022-08-31T05:05:07.401Z,96.07
2022-08-31T05:07:39.227Z,97.20
2022-08-31T05:10:10.664Z,97.65
2022-08-31T05:12:41.446Z,96.30
2022-08-31T05:15:12.838Z,95.41
2022-08-31T05:17:43.393Z,94.72
2022-08-31T05:20:13.469Z,95.84
2022-08-31T05:22:43.602Z,96.37
2022-08-31T05:25:14.127Z,96.15
2022-08-31T05:27:44.520Z,95.70
2022-08-31T05:30:15.903Z,95.21
2022-08-31T05:32:51.244Z,94.99
2022-08-31T05:35:22.346Z,95.31
2022-08-31T05:37:53.216Z,94.79
2022-08-31T05:40:23.854Z,94.61
2022-08-31T05:42:54.224Z,95.22
2022-08-31T05:45:24.056Z,95.59
2022-08-31T05:47:54.780Z,95.61
2022-08-31T05:50:25.027Z,96.14
2022-08-31T05:52:55.394Z,96.57
2022-08-31T05:55:25.278Z,96.95
2022-08-31T05:57:55.848Z,97.08
2022-08-31T06:00:29.980Z,97.61
2022-08-31T06:03:16.318Z,98.68
2022-08-31T06:05:47.031Z,99.14
2022-08-31T06:08:18.283Z,99.43
2022-08-31T06:10:55.302Z,99.45
2022-08-31T06:13:27.490Z,99.72
2022-08-31T06:15:59.413Z,99.70
2022-08-31T06:18:29.746Z,99.99
2022-08-31T06:21:05.004Z,99.99
2022-08-31T06:23:35.691Z,99.99
2022-08-31T06:26:15.211Z,99.99
2022-08-31T06:28:48.748Z,99.99
2022-08-31T06:31:30.722Z,99.99
2022-08-31T06:34:02.746Z,99.99
2022-08-31T06:36:51.396Z,99.99
2022-08-31T06:39:35.296Z,99.99
2022-08-31T06:42:24.009Z,99.99
2022-08-31T06:45:08.908Z,99.99
2022-08-31T06:47:45.961Z,99.99
2022-08-31T06:50:17.068Z,99.99
2022-08-31T06:52:49.719Z,99.99
2022-08-31T06:55:40.498Z,99.99
2022-08-31T06:58:39.471Z,99.99
2022-08-31T07:01:37.824Z,99.99
2022-08-31T07:04:21.152Z,99.99
2022-08-31T07:06:51.859Z,99.99
2022-08-31T07:09:22.001Z,99.99
2022-08-31T07:11:53.822Z,99.99
2022-08-31T07:14:26.917Z,99.99
2022-08-31T07:17:04.208Z,99.99
2022-08-31T07:19:35.862Z,99.99
2022-08-31T07:22:11.428Z,99.99
2022-08-31T07:24:48.701Z,99.99
2022-08-31T07:27:19.645Z,99.99
2022-08-31T07:29:56.794Z,99.99
2022-08-31T07:32:27.511Z,99.99
2022-08-31T07:35:00.823Z,99.99
2022-08-31T07:37:53.305Z,99.99
2022-08-31T07:40:46.307Z,99.99
2022-08-31T07:43:18.035Z,99.99
2022-08-31T07:45:49.145Z,99.99
2022-08-31T07:48:25.839Z,99.99
2022-08-31T07:51:24.471Z,99.99
2022-08-31T07:54:12.749Z,99.99
2022-08-31T07:56:49.522Z,99.99
2022-08-31T07:59:24.807Z,99.99
2022-08-31T08:02:00.568Z,99.99
2022-08-31T08:04:31.455Z,99.99
2022-08-31T08:07:27.494Z,99.99
2022-08-31T08:10:35.165Z,99.99
2022-08-31T08:13:26.587Z,99.99
2022-08-31T08:16:07.890Z,99.99
2022-08-31T08:18:56.454Z,99.99
2022-08-31T08:21:31.473Z,99.99
2022-08-31T08:24:03.290Z,99.99
2022-08-31T08:26:54.574Z,99.99
2022-08-31T08:29:36.700Z,99.99
2022-08-31T08:32:15.489Z,99.99
2022-08-31T08:34:47.850Z,99.99
2022-08-31T08:37:23.973Z,99.99
2022-08-31T08:40:06.796Z,99.99
2022-08-31T08:42:40.592Z,99.99
2022-08-31T08:45:12.332Z,99.99
2022-08-31T08:47:44.423Z,99.99
2022-08-31T08:50:15.190Z,99.99
2022-08-31T08:52:48.091Z,99.99
2022-08-31T08:55:24.312Z,99.99
2022-08-31T08:57:58.181Z,99.99
2022-08-31T09:00:30.082Z,99.99
2022-08-31T09:03:43.292Z,99.99
2022-08-31T09:06:45.383Z,99.99
2022-08-31T09:09:42.092Z,99.99
2022-08-31T09:12:32.982Z,99.99
2022-08-31T09:15:20.115Z,99.99
2022-08-31T09:17:55.791Z,99.99
2022-08-31T09:20:29.540Z,99.99
2022-08-31T09:23:01.983Z,99.99
2022-08-31T09:25:40.242Z,99.99
2022-08-31T09:28:50.477Z,99.99
2022-08-31T09:31:42.567Z,99.99
2022-08-31T09:34:30.547Z,99.99
2022-08-31T09:37:25.610Z,99.99
2022-08-31T09:39:56.460Z,99.99
2022-08-31T09:42:33.743Z,99.99
2022-08-31T09:45:19.383Z,99.99
2022-08-31T09:47:54.126Z,99.99
2022-08-31T09:50:46.303Z,99.99
2022-08-31T09:53:41.938Z,99.99
2022-08-31T09:56:20.379Z,99.99
2022-08-31T09:58:54.306Z,99.99
2022-08-31T10:01:39.285Z,99.99
2022-08-31T10:04:33.568Z,99.99
2022-08-31T10:07:15.378Z,99.99
2022-08-31T10:09:57.564Z,99.99
2022-08-31T10:12:36.143Z,99.99
2022-08-31T10:15:15.679Z,99.99
2022-08-31T10:18:15.879Z,99.99
2022-08-31T10:20:57.188Z,99.99
2022-08-31T10:23:36.557Z,99.99
2022-08-31T10:26:19.614Z,99.99
2022-08-31T10:28:57.573Z,99.99
2022-08-31T10:31:43.723Z,99.99
2022-08-31T10:34:43.523Z,99.99
2022-08-31T10:37:19.428Z,99.99
2022-08-31T10:39:55.612Z,99.99
2022-08-31T10:42:39.499Z,99.99
2022-08-31T10:45:18.879Z,99.99
2022-08-31T10:47:51.647Z,99.99
2022-08-31T10:50:52.567Z,99.99
2022-08-31T10:53:46.396Z,99.99
2022-08-31T10:56:24.024Z,99.99
2022-08-31T10:59:03.320Z,99.99
2022-08-31T11:01:54.414Z,99.29
2022-08-31T11:04:40.077Z,99.14
2022-08-31T11:07:45.356Z,97.65
2022-08-31T11:10:21.798Z,96.21
2022-08-31T11:12:58.915Z,95.66
2022-08-31T11:15:46.528Z,95.23
2022-08-31T11:18:41.874Z,94.34
2022-08-31T11:21:40.190Z,95.23
2022-08-31T11:24:36.436Z,93.00
2022-08-31T11:27:24.745Z,92.39
2022-08-31T11:30:13.045Z,92.26
2022-08-31T11:32:48.746Z,87.94
2022-08-31T11:35:51.350Z,86.48
2022-08-31T11:38:43.578Z,85.71
2022-08-31T11:41:45.981Z,84.82
2022-08-31T11:44:31.315Z,83.10
2022-08-31T11:47:10.795Z,83.25
2022-08-31T11:49:53.070Z,82.62
2022-08-31T11:52:26.892Z,82.36
2022-08-31T11:55:12.548Z,81.01
2022-08-31T11:58:11.188Z,80.29
2022-08-31T12:01:04.119Z,81.23
2022-08-31T12:04:04.563Z,79.12
2022-08-31T12:06:39.252Z,80.71
2022-08-31T12:09:11.427Z,80.24
2022-08-31T12:11:55.051Z,80.88
2022-08-31T12:14:52.362Z,80.41
2022-08-31T12:17:25.802Z,80.36
2022-08-31T12:20:03.542Z,78.57
2022-08-31T12:23:31.486Z,78.63
2022-08-31T12:26:15.559Z,80.22
2022-08-31T12:29:05.542Z,78.50
2022-08-31T12:32:00.873Z,78.79
2022-08-31T12:34:33.587Z,78.46
2022-08-31T12:37:27.148Z,77.99
2022-08-31T12:40:21.774Z,78.43
2022-08-31T12:43:02.544Z,77.37
2022-08-31T12:46:05.120Z,75.86
2022-08-31T12:49:03.426Z,77.21
2022-08-31T12:52:43.342Z,75.27
2022-08-31T12:55:29.559Z,73.67
2022-08-31T12:58:52.732Z,72.97
2022-08-31T13:01:53.291Z,71.57
2022-08-31T13:05:38.807Z,71.67
2022-08-31T13:12:08.003Z,70.99
2022-08-31T13:15:06.824Z,72.64
2022-08-31T13:17:41.404Z,71.24
2022-08-31T13:24:33.299Z,69.56
2022-08-31T13:27:15.124Z,70.48
2022-08-31T13:29:47.726Z,70.02
2022-08-31T13:32:33.431Z,67.90
2022-08-31T13:35:09.785Z,68.02
2022-08-31T13:37:46.381Z,67.47
2022-08-31T13:40:21.614Z,66.14
2022-08-31T13:42:57.097Z,68.44
2022-08-31T13:45:35.585Z,66.95
2022-08-31T13:48:11.687Z,67.80
2022-08-31T13:50:56.018Z,67.19
2022-08-31T13:54:05.903Z,68.75
2022-08-31T13:56:57.316Z,66.54
2022-08-31T13:59:33.511Z,67.28
2022-08-31T14:02:30.769Z,67.93
2022-08-31T14:05:09.816Z,66.64
2022-08-31T14:07:48.075Z,66.81
2022-08-31T14:10:24.530Z,66.37
2022-08-31T14:13:13.409Z,64.53
2022-08-31T14:15:59.989Z,64.62
2022-08-31T14:18:41.475Z,64.15
2022-08-31T14:21:27.442Z,65.04
2022-08-31T14:24:03.661Z,64.73
2022-08-31T14:26:38.304Z,63.62
2022-08-31T14:30:03.573Z,66.56
2022-08-31T14:32:38.608Z,64.40
2022-08-31T14:36:05.387Z,67.41
2022-08-31T14:39:02.332Z,64.18
2022-08-31T14:42:00.235Z,65.14
2022-08-31T14:44:35.087Z,65.36
2022-08-31T14:50:07.868Z,61.58
2022-08-31T14:52:47.206Z,62.04
2022-08-31T14:55:42.800Z,63.20
2022-08-31T14:58:18.006Z,61.05
2022-08-31T15:00:53.520Z,60.45
2022-08-31T15:03:27.021Z,62.41
2022-08-31T15:06:04.394Z,61.35
2022-08-31T15:08:38.229Z,61.03
2022-08-31T15:11:10.849Z,61.22
2022-08-31T15:14:06.871Z,61.51
2022-08-31T15:16:39.264Z,59.10
2022-08-31T15:19:16.211Z,59.46
2022-08-31T15:21:58.738Z,59.22
2022-08-31T15:24:33.925Z,59.70
2022-08-31T15:27:12.493Z,59.47
2022-08-31T15:29:44.673Z,58.91
2022-08-31T15:32:19.769Z,57.02
2022-08-31T15:35:00.321Z,55.73
2022-08-31T15:37:33.797Z,56.26
2022-08-31T15:40:07.630Z,56.73
2022-08-31T15:42:40.759Z,55.74
2022-08-31T15:45:12.376Z,55.29
2022-08-31T15:48:01.873Z,56.69
2022-08-31T15:50:40.120Z,57.20
2022-08-31T15:53:13.145Z,57.27
2022-08-31T15:55:46.153Z,57.77
2022-08-31T15:58:19.555Z,56.48
2022-08-31T16:00:55.134Z,55.49
2022-08-31T16:03:26.080Z,55.30
2022-08-31T16:06:01.884Z,54.92
2022-08-31T16:08:37.208Z,53.79
2022-08-31T16:11:15.196Z,54.40
2022-08-31T16:13:53.231Z,54.14
2022-08-31T16:16:24.061Z,53.64
2022-08-31T16:18:59.082Z,53.68
2022-08-31T16:21:30.145Z,53.91
2022-08-31T16:24:03.104Z,54.22
2022-08-31T16:26:38.510Z,54.28
2022-08-31T16:29:15.109Z,53.71
2022-08-31T16:31:47.328Z,55.72
2022-08-31T16:34:20.206Z,55.08
2022-08-31T16:36:54.735Z,54.94
2022-08-31T16:39:28.381Z,53.84
2022-08-31T16:42:01.171Z,53.46
2022-08-31T16:44:36.988Z,53.35
2022-08-31T16:47:09.598Z,53.08
2022-08-31T16:49:44.741Z,55.36
2022-08-31T16:52:22.685Z,54.48
2022-08-31T16:54:58.508Z,52.88
2022-08-31T16:57:35.038Z,52.76
2022-08-31T17:00:07.076Z,53.68
2022-08-31T17:02:38.328Z,55.02
2022-08-31T17:05:10.387Z,53.97
2022-08-31T17:07:44.082Z,53.68
2022-08-31T17:10:16.194Z,54.36
2022-08-31T17:12:50.542Z,58.05
2022-08-31T17:15:21.919Z,54.80
2022-08-31T17:17:53.084Z,53.36
2022-08-31T17:20:24.009Z,53.48
2022-08-31T17:22:57.696Z,52.81
2022-08-31T17:25:28.971Z,53.07
2022-08-31T17:28:07.508Z,53.58
2022-08-31T17:30:44.027Z,53.80
2022-08-31T17:33:15.485Z,53.79
2022-08-31T17:35:46.758Z,53.22
2022-08-31T17:38:18.529Z,53.65
2022-08-31T17:40:49.265Z,52.28
2022-08-31T17:43:21.342Z,53.22
2022-08-31T17:45:55.825Z,53.30
2022-08-31T17:48:26.332Z,53.26
2022-08-31T17:50:57.188Z,53.77
2022-08-31T17:53:28.241Z,53.62
2022-08-31T17:55:59.614Z,54.49
2022-08-31T17:58:31.324Z,53.24
2022-08-31T18:01:04.566Z,53.21
2022-08-31T18:03:36.309Z,52.94
2022-08-31T18:06:08.693Z,54.74
2022-08-31T18:08:42.612Z,54.88
2022-08-31T18:11:14.097Z,53.99
2022-08-31T18:13:45.453Z,54.05
2022-08-31T18:16:19.078Z,52.83
2022-08-31T18:18:52.178Z,55.09
2022-08-31T18:21:25.164Z,54.58
2022-08-31T18:23:56.612Z,55.17
2022-08-31T18:26:33.571Z,53.64
2022-08-31T18:29:07.196Z,54.60
2022-08-31T18:31:41.846Z,54.99
2022-08-31T18:34:15.640Z,55.23
2022-08-31T18:36:48.191Z,55.35
2022-08-31T18:39:50.028Z,54.57
2022-08-31T18:42:35.251Z,53.42
2022-08-31T18:45:22.650Z,54.13
2022-08-31T18:50:50.764Z,55.51
2022-08-31T18:53:28.653Z,55.60
2022-08-31T18:56:08.354Z,55.73
2022-08-31T18:58:39.975Z,56.38
2022-08-31T19:01:14.480Z,55.38
2022-08-31T19:03:46.712Z,56.78
2022-08-31T19:06:22.312Z,56.82
2022-08-31T19:08:53.811Z,57.51
2022-08-31T19:11:26.522Z,57.65
2022-08-31T19:13:59.250Z,57.74
2022-08-31T19:16:31.612Z,58.56
2022-08-31T19:19:02.640Z,57.96
2022-08-31T19:21:58.499Z,58.99
2022-08-31T19:24:29.267Z,58.52
2022-08-31T19:27:02.282Z,58.05
2022-08-31T19:29:34.833Z,58.10
2022-08-31T19:32:07.791Z,57.84
2022-08-31T19:34:42.252Z,57.39
2022-08-31T19:37:15.331Z,57.88
2022-08-31T19:39:46.156Z,58.27
2022-08-31T19:42:40.003Z,58.51
2022-08-31T19:45:42.228Z,57.93
2022-08-31T19:48:05.336Z,59.06
2022-08-31T19:50:43.537Z,60.81
2022-08-31T19:53:20.962Z,60.71
2022-08-31T19:56:18.126Z,60.07
2022-08-31T19:58:51.051Z,63.60
2022-08-31T20:01:28.267Z,63.22
2022-08-31T20:03:58.677Z,64.09
2022-08-31T20:06:29.333Z,61.93
2022-08-31T20:08:59.999Z,62.73
2022-08-31T20:11:32.529Z,63.41
2022-08-31T20:14:02.961Z,62.20
2022-08-31T20:16:42.862Z,63.36
2022-08-31T20:19:19.988Z,63.87
2022-08-31T20:21:55.260Z,64.85
2022-08-31T20:24:27.923Z,68.70
2022-08-31T20:27:24.335Z,66.17
2022-08-31T20:29:56.852Z,65.33
2022-08-31T20:32:30.358Z,65.50
2022-08-31T20:35:02.129Z,65.60
2022-08-31T20:37:33.482Z,66.11
2022-08-31T20:40:11.009Z,68.36
2022-08-31T20:42:45.353Z,72.22
2022-08-31T20:45:43.086Z,73.70
2022-08-31T20:48:36.636Z,75.85
2022-08-31T20:51:17.442Z,77.31
2022-08-31T20:53:50.422Z,75.57
2022-08-31T20:56:47.099Z,76.81
2022-08-31T20:59:18.260Z,78.27
2022-08-31T21:01:56.577Z,79.32
2022-08-31T21:04:36.340Z,79.49
2022-08-31T21:07:09.874Z,80.66
2022-08-31T21:09:44.028Z,79.28
2022-08-31T21:12:18.534Z,80.84
2022-08-31T21:14:49.388Z,81.56
2022-08-31T21:17:19.936Z,82.16
2022-08-31T21:19:52.775Z,83.04
2022-08-31T21:22:23.854Z,83.66
2022-08-31T21:25:01.244Z,83.92
2022-08-31T21:27:57.000Z,84.73
2022-08-31T21:30:31.216Z,85.37
2022-08-31T21:33:04.129Z,85.42
2022-08-31T21:35:38.132Z,86.14
2022-08-31T21:38:14.065Z,86.60
2022-08-31T21:40:52.601Z,86.79
2022-08-31T21:43:25.938Z,86.70
2022-08-31T21:46:13.120Z,87.98
2022-08-31T21:48:46.843Z,88.55
2022-08-31T21:51:51.433Z,88.72
2022-08-31T21:54:29.397Z,89.97
2022-08-31T21:57:08.393Z,90.52
2022-08-31T21:59:40.214Z,90.03
2022-08-31T22:02:16.435Z,88.79
2022-08-31T22:04:47.382Z,90.34
2022-08-31T22:07:42.125Z,90.93
2022-08-31T22:10:16.070Z,91.23
2022-08-31T22:12:47.043Z,91.74
2022-08-31T22:15:19.751Z,91.99
2022-08-31T22:18:11.387Z,92.59
2022-08-31T22:21:09.114Z,93.14
2022-08-31T22:23:41.335Z,93.60
2022-08-31T22:26:14.394Z,93.87
2022-08-31T22:28:49.506Z,93.99
2022-08-31T22:31:23.696Z,92.75
2022-08-31T22:33:58.224Z,93.61
2022-08-31T22:36:35.683Z,94.14
2022-08-31T22:42:04.585Z,93.21
2022-08-31T22:44:38.504Z,94.40
2022-08-31T22:47:11.397Z,94.87
2022-08-31T22:49:43.477Z,95.24
2022-08-31T22:52:17.362Z,95.38
2022-08-31T22:54:52.456Z,95.33
2022-08-31T22:57:23.492Z,95.82
2022-08-31T22:59:55.793Z,95.89
2022-08-31T23:02:32.326Z,95.83
2022-08-31T23:05:04.825Z,95.40
2022-08-31T23:07:42.341Z,95.49
2022-08-31T23:10:19.665Z,95.76
2022-08-31T23:13:16.422Z,95.86
2022-08-31T23:15:51.096Z,96.44
2022-08-31T23:18:28.870Z,96.67
2022-08-31T23:21:04.535Z,96.82
2022-08-31T23:23:35.440Z,96.94
2022-08-31T23:26:20.479Z,97.61
2022-08-31T23:28:54.107Z,97.65
2022-08-31T23:31:28.644Z,97.58
2022-08-31T23:34:01.429Z,97.50
2022-08-31T23:36:33.325Z,97.48
2022-08-31T23:39:06.291Z,97.80
2022-08-31T23:41:39.242Z,97.96
2022-08-31T23:44:37.474Z,97.84
2022-08-31T23:47:12.351Z,98.30
2022-08-31T23:49:47.276Z,98.66
2022-08-31T23:52:19.744Z,98.77
2022-08-31T23:55:01.761Z,99.11
2022-08-31T23:57:34.196Z,98.91
